Time;durP1;ratioP1;P1;durP2;ratioP2;P2;SDS_P1;SDS_P2;PMS_P1;PMS_P2;Temp;Humidity;BMP_temperature;BMP_pressure;BME280_temperature;BME280_humidity;BME280_pressure;Samples;Min_cycle;Max_cycle;Signal;HPM_P1;HPM_P2
2023/06/20 00:01:43;;;;;;;1.67;1.58;;;;;;;;;;5101056;28;20725;-82
2023/06/20 00:04:11;;;;;;;1.90;1.80;;;;;;;;;;5102321;28;20223;-81
2023/06/20 00:06:38;;;;;;;1.58;1.48;;;;;;;;;;5100754;28;20211;-82
2023/06/20 00:09:07;;;;;;;1.77;1.67;;;;;;;;;;5101219;28;20293;-81
2023/06/20 00:11:34;;;;;;;1.60;1.50;;;;;;;;;;5101148;28;20200;-81
2023/06/20 00:14:02;;;;;;;1.67;1.58;;;;;;;;;;5101360;28;20238;-82
2023/06/20 00:16:29;;;;;;;1.75;1.65;;;;;;;;;;5101405;28;20291;-81
2023/06/20 00:18:57;;;;;;;1.42;1.40;;;;;;;;;;5101282;28;20696;-81
2023/06/20 00:21:25;;;;;;;1.70;1.60;;;;;;;;;;5100957;28;20219;-81
2023/06/20 00:23:53;;;;;;;2.35;1.75;;;;;;;;;;5100924;28;20295;-82
2023/06/20 00:26:22;;;;;;;1.80;1.70;;;;;;;;;;5100889;28;20196;-81
2023/06/20 00:28:51;;;;;;;1.48;1.38;;;;;;;;;;5101061;28;20210;-82
2023/06/20 00:31:18;;;;;;;2.03;1.92;;;;;;;;;;5101462;28;20232;-82
2023/06/20 00:33:46;;;;;;;1.65;1.55;;;;;;;;;;5100729;28;20200;-82
2023/06/20 00:36:13;;;;;;;2.10;1.88;;;;;;;;;;5100138;28;20795;-82
2023/06/20 00:38:48;;;;;;;1.73;1.63;;;;;;;;;;5100388;28;20299;-82
2023/06/20 00:41:16;;;;;;;2.00;1.90;;;;;;;;;;5100863;28;20711;-81
2023/06/20 00:43:44;;;;;;;2.10;2.00;;;;;;;;;;5100306;28;20287;-82
2023/06/20 00:46:12;;;;;;;1.60;1.50;;;;;;;;;;5100076;28;20315;-82
2023/06/20 00:48:39;;;;;;;1.90;1.80;;;;;;;;;;5100329;28;20264;-81
2023/06/20 00:51:07;;;;;;;1.55;1.48;;;;;;;;;;5100178;28;20560;-81
2023/06/20 00:53:34;;;;;;;1.77;1.67;;;;;;;;;;5099988;28;20204;-82
2023/06/20 00:56:02;;;;;;;1.67;1.58;;;;;;;;;;5099380;28;20315;-81
2023/06/20 00:58:29;;;;;;;1.90;1.80;;;;;;;;;;5109112;28;20235;-82
2023/06/20 01:00:58;;;;;;;2.05;1.95;;;;;;;;;;5103659;28;20255;-81
2023/06/20 01:03:26;;;;;;;1.52;1.42;;;;;;;;;;5107726;28;20223;-81
2023/06/20 01:06:03;;;;;;;2.08;1.88;;;;;;;;;;5099515;28;20220;-81
2023/06/20 01:08:49;;;;;;;1.60;1.50;;;;;;;;;;5111293;28;20279;-81
2023/06/20 01:11:25;;;;;;;1.70;1.60;;;;;;;;;;5120518;28;20734;-81
2023/06/20 01:14:00;;;;;;;1.63;1.52;;;;;;;;;;5120602;28;20195;-82
2023/06/20 01:16:36;;;;;;;1.90;1.80;;;;;;;;;;5118329;28;20199;-81
2023/06/20 01:19:18;;;;;;;1.83;1.60;;;;;;;;;;5108067;28;20200;-82
2023/06/20 01:21:50;;;;;;;1.73;1.63;;;;;;;;;;5080406;28;20224;-82
2023/06/20 01:24:23;;;;;;;1.85;1.75;;;;;;;;;;5079343;28;20232;-82
2023/06/20 01:26:58;;;;;;;1.42;1.40;;;;;;;;;;5079558;28;20587;-81
2023/06/20 01:29:34;;;;;;;1.70;1.60;;;;;;;;;;5079350;28;20200;-82
2023/06/20 01:32:04;;;;;;;2.15;2.05;;;;;;;;;;5080010;28;20304;-82
2023/06/20 01:34:34;;;;;;;1.67;1.58;;;;;;;;;;5082900;28;20235;-82
2023/06/20 01:37:03;;;;;;;2.08;1.98;;;;;;;;;;5099719;28;20613;-82
2023/06/20 01:39:37;;;;;;;1.90;1.80;;;;;;;;;;5099759;28;20204;-82
2023/06/20 01:42:06;;;;;;;1.85;1.75;;;;;;;;;;5099265;28;20225;-82
2023/06/20 01:44:36;;;;;;;1.70;1.60;;;;;;;;;;5098451;28;20221;-81
2023/06/20 01:47:05;;;;;;;2.05;1.95;;;;;;;;;;5107665;28;20283;-81
2023/06/20 01:49:33;;;;;;;1.90;1.80;;;;;;;;;;5101872;28;20195;-81
2023/06/20 01:52:01;;;;;;;2.03;1.92;;;;;;;;;;5120280;28;20196;-82
2023/06/20 01:54:32;;;;;;;1.92;1.73;;;;;;;;;;5123298;28;20291;-81
2023/06/20 01:57:00;;;;;;;1.85;1.75;;;;;;;;;;5122591;28;20207;-81
2023/06/20 01:59:28;;;;;;;1.90;1.80;;;;;;;;;;5122882;28;20307;-81
2023/06/20 02:01:57;;;;;;;3.33;1.80;;;;;;;;;;5123303;28;20310;-81
2023/06/20 02:04:26;;;;;;;1.98;1.88;;;;;;;;;;5120023;28;20224;-82
2023/06/20 02:06:55;;;;;;;2.03;1.92;;;;;;;;;;5102707;28;20207;-82
2023/06/20 02:09:22;;;;;;;1.80;1.70;;;;;;;;;;5102966;28;20913;-82
2023/06/20 02:11:51;;;;;;;1.90;1.80;;;;;;;;;;5103204;28;20203;-81
2023/06/20 02:14:19;;;;;;;1.77;1.67;;;;;;;;;;5103450;28;20312;-82
2023/06/20 02:16:50;;;;;;;1.80;1.70;;;;;;;;;;5102630;28;20291;-82
2023/06/20 02:19:17;;;;;;;1.90;1.75;;;;;;;;;;5101232;28;20192;-82
2023/06/20 02:21:47;;;;;;;1.90;1.80;;;;;;;;;;5102404;28;20291;-82
2023/06/20 02:24:20;;;;;;;2.40;1.88;;;;;;;;;;5102747;28;20319;-82
2023/06/20 02:26:48;;;;;;;1.90;1.80;;;;;;;;;;5104967;28;20248;-81
2023/06/20 02:29:17;;;;;;;2.30;2.20;;;;;;;;;;5113802;28;20279;-82
2023/06/20 02:31:48;;;;;;;2.03;1.92;;;;;;;;;;5122333;28;20203;-81
2023/06/20 02:34:19;;;;;;;2.05;1.95;;;;;;;;;;5111185;28;20224;-82
2023/06/20 02:36:47;;;;;;;1.90;1.80;;;;;;;;;;5095916;28;20657;-82
2023/06/20 02:39:15;;;;;;;2.20;2.00;;;;;;;;;;5099699;28;20205;-82
2023/06/20 02:41:43;;;;;;;2.47;1.80;;;;;;;;;;5102462;28;20291;-81
2023/06/20 02:44:10;;;;;;;1.83;1.73;;;;;;;;;;5101862;28;20291;-82
2023/06/20 02:46:56;;;;;;;1.73;1.60;;;;;;;;;;5102019;28;20207;-81
2023/06/20 02:49:34;;;;;;;1.73;1.63;;;;;;;;;;5101197;28;20576;-81
2023/06/20 02:52:07;;;;;;;1.55;1.45;;;;;;;;;;5101047;28;20215;-82
2023/06/20 02:54:42;;;;;;;1.88;1.70;;;;;;;;;;5101681;28;20226;-82
2023/06/20 02:57:12;;;;;;;2.00;1.90;;;;;;;;;;5101091;28;20192;-82
2023/06/20 02:59:40;;;;;;;1.83;1.73;;;;;;;;;;5101313;28;20207;-81
2023/06/20 03:02:09;;;;;;;2.00;1.90;;;;;;;;;;5100725;28;20275;-82
2023/06/20 03:04:37;;;;;;;1.90;1.80;;;;;;;;;;5100710;28;20220;-82
2023/06/20 03:07:07;;;;;;;1.80;1.70;;;;;;;;;;5101078;28;20738;-81
2023/06/20 03:09:35;;;;;;;1.80;1.70;;;;;;;;;;5101341;28;20660;-82
2023/06/20 03:12:02;;;;;;;1.73;1.63;;;;;;;;;;5100784;28;20201;-82
2023/06/20 03:14:32;;;;;;;1.92;1.83;;;;;;;;;;5100726;28;20246;-81
2023/06/20 03:17:01;;;;;;;1.90;1.80;;;;;;;;;;5101790;28;20719;-82
2023/06/20 03:19:32;;;;;;;1.70;1.60;;;;;;;;;;5101232;28;20731;-82
2023/06/20 03:22:00;;;;;;;1.77;1.67;;;;;;;;;;5101181;28;20200;-81
2023/06/20 03:24:27;;;;;;;2.00;1.90;;;;;;;;;;5101035;28;20224;-81
2023/06/20 03:26:56;;;;;;;2.10;2.00;;;;;;;;;;5100681;28;20326;-82
2023/06/20 03:29:23;;;;;;;1.83;1.73;;;;;;;;;;5099956;28;20557;-82
2023/06/20 03:31:51;;;;;;;1.73;1.63;;;;;;;;;;5100384;28;20211;-82
2023/06/20 03:34:18;;;;;;;1.90;1.80;;;;;;;;;;5100522;28;20579;-82
2023/06/20 03:36:47;;;;;;;1.65;1.55;;;;;;;;;;5079395;28;20268;-81
2023/06/20 03:39:14;;;;;;;1.65;1.55;;;;;;;;;;5079209;28;20201;-82
2023/06/20 03:41:42;;;;;;;3.08;2.03;;;;;;;;;;5080108;28;20209;-81
2023/06/20 03:44:09;;;;;;;2.47;2.13;;;;;;;;;;5079238;28;20311;-81
2023/06/20 03:46:36;;;;;;;2.25;2.00;;;;;;;;;;5079221;28;20205;-81
2023/06/20 03:49:04;;;;;;;2.35;2.22;;;;;;;;;;5076417;28;20208;-81
2023/06/20 03:51:31;;;;;;;2.33;2.22;;;;;;;;;;5077175;28;20251;-81
2023/06/20 03:54:00;;;;;;;2.33;2.22;;;;;;;;;;5077608;28;20292;-81
2023/06/20 03:56:27;;;;;;;2.30;2.20;;;;;;;;;;5085269;28;20589;-81
2023/06/20 03:58:55;;;;;;;2.67;2.30;;;;;;;;;;5108835;28;20202;-81
2023/06/20 04:01:24;;;;;;;2.60;2.40;;;;;;;;;;5116561;28;20290;-81
2023/06/20 04:03:52;;;;;;;2.90;2.70;;;;;;;;;;5116342;28;20230;-80
2023/06/20 04:06:20;;;;;;;3.47;3.28;;;;;;;;;;5100065;28;20676;-80
2023/06/20 04:08:47;;;;;;;4.05;3.67;;;;;;;;;;5095023;28;20203;-81
2023/06/20 04:11:16;;;;;;;2.47;2.33;;;;;;;;;;5095707;28;20200;-80
2023/06/20 04:13:43;;;;;;;2.90;2.70;;;;;;;;;;5095775;28;20287;-81
2023/06/20 04:16:11;;;;;;;2.80;2.60;;;;;;;;;;5094530;28;20236;-80
2023/06/20 04:18:38;;;;;;;3.53;3.22;;;;;;;;;;5094960;28;20204;-81
2023/06/20 04:21:06;;;;;;;3.10;2.90;;;;;;;;;;5095022;28;20204;-80
2023/06/20 04:23:33;;;;;;;4.25;3.85;;;;;;;;;;5095105;28;20220;-80
2023/06/20 04:26:01;;;;;;;4.18;3.78;;;;;;;;;;5094237;28;20224;-81
2023/06/20 04:28:30;;;;;;;3.60;3.33;;;;;;;;;;5095039;28;20200;-81
2023/06/20 04:30:59;;;;;;;4.20;3.85;;;;;;;;;;5095275;28;20660;-81
2023/06/20 04:33:27;;;;;;;3.15;2.95;;;;;;;;;;5094885;28;20199;-81
2023/06/20 04:35:57;;;;;;;3.08;2.88;;;;;;;;;;5094232;28;20220;-81
2023/06/20 04:38:24;;;;;;;2.80;2.60;;;;;;;;;;5094899;28;20200;-81
2023/06/20 04:40:52;;;;;;;3.05;2.85;;;;;;;;;;5094789;28;20296;-80
2023/06/20 04:43:22;;;;;;;3.38;3.08;;;;;;;;;;5093634;28;20204;-80
2023/06/20 04:45:51;;;;;;;3.90;3.58;;;;;;;;;;5096060;28;20582;-80
2023/06/20 04:48:18;;;;;;;3.15;2.95;;;;;;;;;;5095038;28;20206;-80
2023/06/20 04:50:45;;;;;;;2.97;2.78;;;;;;;;;;5098433;28;20684;-80
2023/06/20 04:53:13;;;;;;;2.85;2.60;;;;;;;;;;5094147;28;20236;-81
2023/06/20 04:55:40;;;;;;;3.22;2.92;;;;;;;;;;5094116;28;20226;-81
2023/06/20 04:58:08;;;;;;;3.05;2.85;;;;;;;;;;5093296;28;20204;-80
2023/06/20 05:00:37;;;;;;;3.00;2.80;;;;;;;;;;5094475;28;20204;-81
2023/06/20 05:03:05;;;;;;;3.15;2.95;;;;;;;;;;5094055;28;20667;-80
2023/06/20 05:05:33;;;;;;;2.80;2.60;;;;;;;;;;5093998;28;20591;-80
2023/06/20 05:08:00;;;;;;;3.13;2.92;;;;;;;;;;5094303;28;20624;-80
2023/06/20 05:10:28;;;;;;;3.10;2.85;;;;;;;;;;5093989;28;20210;-78
2023/06/20 05:12:55;;;;;;;3.20;3.00;;;;;;;;;;5092407;28;20223;-79
2023/06/20 05:15:24;;;;;;;2.83;2.63;;;;;;;;;;5093343;28;20216;-78
2023/06/20 05:17:52;;;;;;;3.20;3.00;;;;;;;;;;5092923;28;20204;-79
2023/06/20 05:20:21;;;;;;;3.70;3.47;;;;;;;;;;5093233;28;20200;-78
2023/06/20 05:22:48;;;;;;;3.55;3.35;;;;;;;;;;5092920;28;20206;-78
2023/06/20 05:25:16;;;;;;;4.10;3.70;;;;;;;;;;5092582;28;20220;-79
2023/06/20 05:27:44;;;;;;;3.72;3.42;;;;;;;;;;5092874;28;20214;-78
2023/06/20 05:30:12;;;;;;;3.80;3.50;;;;;;;;;;5092396;28;20207;-78
2023/06/20 05:32:39;;;;;;;3.47;3.22;;;;;;;;;;5092520;28;20204;-78
2023/06/20 05:35:08;;;;;;;3.95;3.65;;;;;;;;;;5092245;28;20216;-78
2023/06/20 05:37:37;;;;;;;3.45;3.17;;;;;;;;;;5092284;28;20196;-78
2023/06/20 05:40:06;;;;;;;3.85;3.55;;;;;;;;;;5092765;28;20204;-79
2023/06/20 05:42:34;;;;;;;3.13;2.92;;;;;;;;;;5092957;28;20203;-78
2023/06/20 05:45:01;;;;;;;3.22;2.92;;;;;;;;;;5092419;28;20714;-78
2023/06/20 05:47:29;;;;;;;2.53;2.42;;;;;;;;;;5092817;28;20208;-79
2023/06/20 05:49:57;;;;;;;2.65;2.53;;;;;;;;;;5092864;28;20207;-78
2023/06/20 05:52:25;;;;;;;2.50;2.30;;;;;;;;;;5092158;28;20271;-78
2023/06/20 05:54:54;;;;;;;2.22;2.13;;;;;;;;;;5092555;28;20220;-79
2023/06/20 05:57:22;;;;;;;2.45;2.33;;;;;;;;;;5092926;28;20196;-78
2023/06/20 05:59:50;;;;;;;3.05;2.75;;;;;;;;;;5092696;28;20587;-79
2023/06/20 06:02:17;;;;;;;3.08;2.85;;;;;;;;;;5092521;28;20291;-79
2023/06/20 06:04:44;;;;;;;2.80;2.60;;;;;;;;;;5092152;28;20242;-79
2023/06/20 06:07:12;;;;;;;3.22;2.95;;;;;;;;;;5091999;28;20202;-79
2023/06/20 06:09:39;;;;;;;3.05;2.85;;;;;;;;;;5092118;28;20211;-78
2023/06/20 06:12:10;;;;;;;2.85;2.65;;;;;;;;;;5092715;28;20206;-79
2023/06/20 06:14:37;;;;;;;3.38;2.83;;;;;;;;;;5092323;28;20231;-78
2023/06/20 06:17:05;;;;;;;2.70;2.50;;;;;;;;;;5091765;28;20204;-77
2023/06/20 06:19:32;;;;;;;2.45;2.35;;;;;;;;;;5092383;28;20196;-78
2023/06/20 06:22:00;;;;;;;3.40;3.10;;;;;;;;;;5092546;28;20758;-78
2023/06/20 06:24:27;;;;;;;2.83;2.63;;;;;;;;;;5091917;28;20228;-79
2023/06/20 06:26:55;;;;;;;3.60;3.30;;;;;;;;;;5092246;28;20206;-78
2023/06/20 06:29:25;;;;;;;2.78;2.55;;;;;;;;;;5091775;28;20206;-78
2023/06/20 06:31:53;;;;;;;2.97;2.78;;;;;;;;;;5092429;28;20302;-79
2023/06/20 06:34:20;;;;;;;3.20;3.00;;;;;;;;;;5092548;28;20217;-78
2023/06/20 06:36:49;;;;;;;3.30;3.10;;;;;;;;;;5071268;28;20831;-78
2023/06/20 06:39:18;;;;;;;3.42;3.13;;;;;;;;;;5101350;22;20234;-77
2023/06/20 06:41:45;;;;;;;4.95;3.85;;;;;;;;;;5096218;28;20204;-78
2023/06/20 06:44:13;;;;;;;4.03;3.10;;;;;;;;;;5096395;28;20639;-78
2023/06/20 06:46:42;;;;;;;5.70;3.92;;;;;;;;;;5095747;28;20595;-78
2023/06/20 06:49:09;;;;;;;4.85;4.45;;;;;;;;;;5095738;28;20220;-78
2023/06/20 06:51:37;;;;;;;4.75;4.40;;;;;;;;;;5096020;28;20198;-78
2023/06/20 06:54:04;;;;;;;4.00;3.70;;;;;;;;;;5096155;28;20663;-78
2023/06/20 06:56:32;;;;;;;3.78;3.47;;;;;;;;;;5098078;28;20743;-79
2023/06/20 06:59:00;;;;;;;3.25;3.00;;;;;;;;;;5095279;28;20227;-78
2023/06/20 07:01:29;;;;;;;3.95;3.65;;;;;;;;;;5102950;28;20208;-79
2023/06/20 07:03:57;;;;;;;3.67;3.38;;;;;;;;;;5095667;28;20246;-78
2023/06/20 07:06:25;;;;;;;2.88;2.67;;;;;;;;;;5097275;28;20223;-77
2023/06/20 07:08:53;;;;;;;2.47;2.38;;;;;;;;;;5095396;28;20564;-78
2023/06/20 07:11:20;;;;;;;3.42;3.15;;;;;;;;;;5096079;28;20200;-77
2023/06/20 07:13:48;;;;;;;3.95;3.65;;;;;;;;;;5095651;28;20210;-77
2023/06/20 07:16:15;;;;;;;3.50;3.20;;;;;;;;;;5095495;28;20197;-79
2023/06/20 07:18:43;;;;;;;3.05;2.83;;;;;;;;;;5095427;28;20189;-78
2023/06/20 07:21:12;;;;;;;3.78;3.47;;;;;;;;;;5094743;28;20201;-78
2023/06/20 07:23:39;;;;;;;3.63;3.42;;;;;;;;;;5094934;28;20201;-78
2023/06/20 07:26:07;;;;;;;2.78;2.58;;;;;;;;;;5095039;28;20228;-78
2023/06/20 07:28:35;;;;;;;3.35;3.15;;;;;;;;;;5095318;28;20200;-77
2023/06/20 07:31:02;;;;;;;2.95;2.75;;;;;;;;;;5095483;28;20234;-81
2023/06/20 07:33:30;;;;;;;4.00;3.70;;;;;;;;;;5095879;28;20584;-77
2023/06/20 07:35:59;;;;;;;4.60;4.30;;;;;;;;;;5095269;28;20200;-80
2023/06/20 07:38:28;;;;;;;3.97;3.58;;;;;;;;;;5094400;28;20612;-78
2023/06/20 07:40:56;;;;;;;3.58;3.38;;;;;;;;;;5095169;28;20207;-78
2023/06/20 07:43:24;;;;;;;3.30;3.10;;;;;;;;;;5094814;28;20203;-80
2023/06/20 07:45:52;;;;;;;4.20;3.88;;;;;;;;;;5095650;28;20224;-79
2023/06/20 07:48:19;;;;;;;4.13;3.83;;;;;;;;;;5095081;28;20207;-80
2023/06/20 07:50:47;;;;;;;3.78;3.53;;;;;;;;;;5094067;28;20220;-80
2023/06/20 07:53:14;;;;;;;3.97;3.67;;;;;;;;;;5094838;28;20301;-79
2023/06/20 07:55:43;;;;;;;4.78;4.35;;;;;;;;;;5095155;28;20710;-80
2023/06/20 07:58:11;;;;;;;4.00;3.70;;;;;;;;;;5094032;28;20204;-77
2023/06/20 08:00:40;;;;;;;5.85;5.35;;;;;;;;;;5093460;28;20220;-78
2023/06/20 08:03:08;;;;;;;5.90;5.40;;;;;;;;;;5094360;28;20212;-77
2023/06/20 08:05:35;;;;;;;4.93;4.53;;;;;;;;;;5093973;28;20227;-78
2023/06/20 08:08:02;;;;;;;5.15;4.75;;;;;;;;;;5093848;28;20602;-79
2023/06/20 08:10:30;;;;;;;5.70;5.20;;;;;;;;;;5093570;28;20216;-79
2023/06/20 08:12:59;;;;;;;5.47;4.97;;;;;;;;;;5093784;28;20204;-79
2023/06/20 08:15:26;;;;;;;4.75;4.40;;;;;;;;;;5094117;28;20211;-79
2023/06/20 08:17:53;;;;;;;4.65;4.25;;;;;;;;;;5094066;28;20200;-79
2023/06/20 08:20:21;;;;;;;5.57;5.18;;;;;;;;;;5093803;28;20231;-78
2023/06/20 08:22:48;;;;;;;4.35;4.05;;;;;;;;;;5093751;28;20208;-78
2023/06/20 08:25:16;;;;;;;4.22;3.88;;;;;;;;;;5094235;28;20590;-78
2023/06/20 08:27:43;;;;;;;5.25;4.75;;;;;;;;;;5100182;28;20197;-78
2023/06/20 08:30:13;;;;;;;5.35;4.93;;;;;;;;;;5094237;28;20222;-78
2023/06/20 08:32:42;;;;;;;5.60;5.20;;;;;;;;;;5093708;28;20204;-77
2023/06/20 08:35:10;;;;;;;5.47;5.07;;;;;;;;;;5092830;28;20204;-79
2023/06/20 08:37:38;;;;;;;4.90;4.50;;;;;;;;;;5093281;28;20196;-77
2023/06/20 08:40:09;;;;;;;6.00;5.50;;;;;;;;;;5093593;28;20240;-78
2023/06/20 08:42:36;;;;;;;5.43;5.03;;;;;;;;;;5093945;28;20204;-77
2023/06/20 08:45:04;;;;;;;5.78;5.38;;;;;;;;;;5093179;28;20675;-76
2023/06/20 08:47:33;;;;;;;5.47;5.05;;;;;;;;;;5093470;28;20230;-78
2023/06/20 08:50:00;;;;;;;4.75;4.35;;;;;;;;;;5092914;28;20255;-78
2023/06/20 08:52:31;;;;;;;4.32;4.03;;;;;;;;;;5092866;28;20207;-76
2023/06/20 08:54:59;;;;;;;4.47;4.18;;;;;;;;;;5093922;28;20207;-78
2023/06/20 08:57:26;;;;;;;5.13;4.72;;;;;;;;;;5093106;28;20193;-78
2023/06/20 08:59:54;;;;;;;6.40;5.90;;;;;;;;;;5083447;28;20643;-78
2023/06/20 09:02:23;;;;;;;5.65;5.25;;;;;;;;;;5093140;28;20287;-78
2023/06/20 09:05:03;;;;;;;5.82;5.38;;;;;;;;;;5093491;28;20204;-78
2023/06/20 09:07:37;;;;;;;4.32;3.88;;;;;;;;;;5094061;28;20273;-78
2023/06/20 09:10:06;;;;;;;6.25;5.65;;;;;;;;;;5093618;28;20281;-78
2023/06/20 09:12:47;;;;;;;4.43;4.10;;;;;;;;;;5093436;28;20295;-77
2023/06/20 09:15:15;;;;;;;4.88;4.47;;;;;;;;;;5093426;28;20288;-78
2023/06/20 09:17:43;;;;;;;5.90;5.50;;;;;;;;;;5093156;28;20202;-78
2023/06/20 09:20:14;;;;;;;5.45;5.05;;;;;;;;;;5093631;28;20216;-78
2023/06/20 09:22:43;;;;;;;5.40;4.93;;;;;;;;;;5093682;28;20204;-78
2023/06/20 09:25:11;;;;;;;5.32;4.90;;;;;;;;;;5093523;28;20235;-78
2023/06/20 09:27:41;;;;;;;4.63;4.22;;;;;;;;;;5093311;28;20220;-78
2023/06/20 09:30:10;;;;;;;6.32;5.43;;;;;;;;;;5093937;28;20315;-78
2023/06/20 09:32:40;;;;;;;5.30;4.88;;;;;;;;;;5093242;28;20596;-78
2023/06/20 09:35:09;;;;;;;5.55;5.15;;;;;;;;;;5093818;28;20195;-78
2023/06/20 09:37:40;;;;;;;5.28;4.72;;;;;;;;;;5095295;28;20199;-78
2023/06/20 09:40:09;;;;;;;5.05;4.57;;;;;;;;;;5092702;28;20224;-78
2023/06/20 09:42:38;;;;;;;4.63;4.32;;;;;;;;;;5093363;28;20242;-80
2023/06/20 09:45:07;;;;;;;5.57;5.07;;;;;;;;;;5093164;28;20200;-78
2023/06/20 09:47:36;;;;;;;4.15;3.85;;;;;;;;;;5092782;28;20254;-78
2023/06/20 09:50:07;;;;;;;3.72;3.53;;;;;;;;;;5093145;28;20216;-78
2023/06/20 09:52:40;;;;;;;3.75;3.30;;;;;;;;;;5092931;28;20196;-77
2023/06/20 09:55:12;;;;;;;4.43;4.13;;;;;;;;;;5093032;28;20203;-78
2023/06/20 09:57:42;;;;;;;4.43;3.75;;;;;;;;;;5093119;28;20200;-80
2023/06/20 10:00:15;;;;;;;3.85;3.55;;;;;;;;;;5093179;28;20228;-79
2023/06/20 10:02:45;;;;;;;4.70;4.38;;;;;;;;;;5093134;28;20206;-79
2023/06/20 10:05:17;;;;;;;4.47;4.18;;;;;;;;;;5094101;28;20490;-79
2023/06/20 10:07:48;;;;;;;4.35;4.05;;;;;;;;;;5093889;28;20722;-79
2023/06/20 10:10:17;;;;;;;3.63;3.40;;;;;;;;;;5092604;28;20228;-80
2023/06/20 10:12:47;;;;;;;3.58;3.38;;;;;;;;;;5092598;28;20204;-78
2023/06/20 10:15:15;;;;;;;3.72;3.47;;;;;;;;;;5095830;28;20612;-79
2023/06/20 10:17:43;;;;;;;3.75;3.35;;;;;;;;;;5096036;28;20295;-79
2023/06/20 10:20:28;;;;;;;3.05;2.85;;;;;;;;;;5096091;28;20222;-80
2023/06/20 10:23:00;;;;;;;3.42;3.22;;;;;;;;;;5096702;28;20643;-80
2023/06/20 10:25:28;;;;;;;3.97;3.67;;;;;;;;;;5096290;28;20204;-77
2023/06/20 10:27:57;;;;;;;4.25;3.95;;;;;;;;;;5095201;28;20216;-79
2023/06/20 10:31:04;;;;;;;4.40;4.10;;;;;;;;;;5096179;28;20223;-79
2023/06/20 10:33:33;;;;;;;4.78;4.38;;;;;;;;;;5089580;28;20269;-80
2023/06/20 10:36:04;;;;;;;4.55;4.25;;;;;;;;;;5095889;28;20204;-79
2023/06/20 10:38:37;;;;;;;4.13;3.83;;;;;;;;;;5095128;28;20197;-79
2023/06/20 10:41:13;;;;;;;4.38;4.07;;;;;;;;;;5095930;28;20273;-79
2023/06/20 10:43:52;;;;;;;4.03;3.72;;;;;;;;;;5095713;28;20557;-79
2023/06/20 10:46:22;;;;;;;4.05;3.75;;;;;;;;;;5095582;28;20200;-79
2023/06/20 10:48:49;;;;;;;3.92;3.65;;;;;;;;;;5095360;28;20645;-79
2023/06/20 10:51:17;;;;;;;4.07;3.72;;;;;;;;;;5096528;28;20200;-79
2023/06/20 10:53:45;;;;;;;3.67;3.47;;;;;;;;;;5095791;28;20777;-78
2023/06/20 10:56:27;;;;;;;4.30;4.03;;;;;;;;;;5095522;28;20200;-79
2023/06/20 10:58:54;;;;;;;7.20;4.18;;;;;;;;;;5095253;28;20593;-79
2023/06/20 11:01:27;;;;;;;4.35;4.05;;;;;;;;;;5095701;28;20283;-79
2023/06/20 11:03:56;;;;;;;3.67;3.47;;;;;;;;;;5096031;28;20223;-80
2023/06/20 11:06:23;;;;;;;3.53;3.33;;;;;;;;;;5095546;28;20208;-79
2023/06/20 11:08:52;;;;;;;4.28;3.97;;;;;;;;;;5095287;28;20227;-80
2023/06/20 11:11:30;;;;;;;4.82;4.43;;;;;;;;;;5095166;28;20287;-78
2023/06/20 11:14:11;;;;;;;4.22;3.92;;;;;;;;;;5094995;28;20283;-78
2023/06/20 11:16:38;;;;;;;4.40;4.10;;;;;;;;;;5095659;28;20247;-78
2023/06/20 11:19:06;;;;;;;4.18;3.88;;;;;;;;;;5094821;28;20319;-77
2023/06/20 11:21:33;;;;;;;3.72;3.53;;;;;;;;;;5095475;28;20204;-79
2023/06/20 11:24:03;;;;;;;4.47;4.18;;;;;;;;;;5094756;28;20204;-79
2023/06/20 11:26:30;;;;;;;3.55;3.35;;;;;;;;;;5095397;28;20204;-80
2023/06/20 11:29:01;;;;;;;3.60;3.40;;;;;;;;;;5095736;28;20579;-80
2023/06/20 11:31:28;;;;;;;3.42;3.22;;;;;;;;;;5095102;28;20206;-80
2023/06/20 11:34:04;;;;;;;3.47;3.28;;;;;;;;;;5094657;28;20264;-80
2023/06/20 11:36:31;;;;;;;4.43;4.13;;;;;;;;;;5094699;28;20755;-80
2023/06/20 11:39:01;;;;;;;3.60;3.40;;;;;;;;;;5094204;28;20224;-80
2023/06/20 11:41:32;;;;;;;3.60;3.40;;;;;;;;;;5095224;28;20210;-78
2023/06/20 11:44:00;;;;;;;2.92;2.80;;;;;;;;;;5095567;28;20200;-80
2023/06/20 11:46:28;;;;;;;2.83;2.63;;;;;;;;;;5095652;28;20672;-79
2023/06/20 11:48:57;;;;;;;3.72;3.10;;;;;;;;;;5094333;28;20230;-78
2023/06/20 11:51:26;;;;;;;3.30;3.10;;;;;;;;;;5095382;28;20672;-78
2023/06/20 11:54:07;;;;;;;3.15;2.95;;;;;;;;;;5094434;28;20664;-78
2023/06/20 11:56:35;;;;;;;3.55;3.30;;;;;;;;;;5094618;28;20245;-77
2023/06/20 11:59:02;;;;;;;3.75;3.55;;;;;;;;;;5094161;28;20703;-78
2023/06/20 12:01:32;;;;;;;3.80;3.60;;;;;;;;;;5094924;28;20201;-78
2023/06/20 12:04:05;;;;;;;4.13;3.83;;;;;;;;;;5094391;28;20807;-78
2023/06/20 12:06:35;;;;;;;3.47;3.17;;;;;;;;;;5094574;28;20659;-78
2023/06/20 12:09:09;;;;;;;3.83;3.55;;;;;;;;;;5093215;28;20709;-78
2023/06/20 12:11:37;;;;;;;4.00;3.70;;;;;;;;;;5094645;28;20228;-78
2023/06/20 12:14:05;;;;;;;3.42;3.13;;;;;;;;;;5093241;28;20687;-78
2023/06/20 12:16:33;;;;;;;4.03;3.80;;;;;;;;;;5093898;28;20287;-78
2023/06/20 12:19:01;;;;;;;4.32;4.03;;;;;;;;;;5093518;28;20213;-79
2023/06/20 12:21:29;;;;;;;3.92;3.70;;;;;;;;;;5093359;28;20587;-78
2023/06/20 12:23:56;;;;;;;4.18;3.55;;;;;;;;;;5093402;28;20220;-78
2023/06/20 12:26:25;;;;;;;3.65;3.45;;;;;;;;;;5093117;28;20200;-77
2023/06/20 12:28:54;;;;;;;4.10;3.80;;;;;;;;;;5092654;28;20224;-77
2023/06/20 12:31:21;;;;;;;3.10;2.90;;;;;;;;;;5093057;28;20218;-79
2023/06/20 12:33:48;;;;;;;3.22;3.03;;;;;;;;;;5093574;28;20218;-80
2023/06/20 12:36:16;;;;;;;2.97;2.78;;;;;;;;;;5092911;28;20204;-80
2023/06/20 12:41:12;;;;;;;4.90;3.50;;;;;;;;;;5130935;22;20612;-81
2023/06/20 12:43:41;;;;;;;3.35;3.08;;;;;;;;;;5114735;28;20207;-81
2023/06/20 12:46:10;;;;;;;3.33;3.13;;;;;;;;;;5114765;28;20290;-80
2023/06/20 12:48:37;;;;;;;3.42;3.13;;;;;;;;;;5114603;28;20224;-80
2023/06/20 12:51:05;;;;;;;3.47;3.28;;;;;;;;;;5114055;28;20222;-81
2023/06/20 12:53:33;;;;;;;3.00;2.80;;;;;;;;;;5114345;28;20206;-81
2023/06/20 12:56:00;;;;;;;3.67;3.38;;;;;;;;;;5114738;28;20206;-81
2023/06/20 12:58:31;;;;;;;3.50;3.30;;;;;;;;;;5112277;28;20661;-81
2023/06/20 13:01:00;;;;;;;3.45;3.20;;;;;;;;;;5115201;28;20220;-81
2023/06/20 13:03:28;;;;;;;3.22;3.03;;;;;;;;;;5109168;28;20200;-80
2023/06/20 13:05:55;;;;;;;3.53;3.33;;;;;;;;;;5108316;28;20203;-80
2023/06/20 13:08:23;;;;;;;3.53;3.33;;;;;;;;;;5113246;28;20294;-81
2023/06/20 13:10:51;;;;;;;3.58;3.38;;;;;;;;;;5113339;28;20298;-80
2023/06/20 13:13:18;;;;;;;3.75;3.55;;;;;;;;;;5113150;28;20210;-81
2023/06/20 13:15:46;;;;;;;4.32;4.03;;;;;;;;;;5106029;28;20278;-81
2023/06/20 13:18:14;;;;;;;3.83;3.55;;;;;;;;;;5114408;28;20661;-80
2023/06/20 13:20:42;;;;;;;3.92;3.70;;;;;;;;;;5113803;28;20219;-81
2023/06/20 13:23:10;;;;;;;4.20;3.92;;;;;;;;;;5113979;28;20195;-81
2023/06/20 13:25:37;;;;;;;4.32;3.92;;;;;;;;;;5112903;28;20262;-80
2023/06/20 13:28:06;;;;;;;4.88;4.40;;;;;;;;;;5112395;28;20682;-80
2023/06/20 13:30:34;;;;;;;3.83;3.63;;;;;;;;;;5113774;28;20234;-81
2023/06/20 13:33:02;;;;;;;3.65;3.45;;;;;;;;;;5114287;28;20204;-81
2023/06/20 13:35:31;;;;;;;3.70;3.40;;;;;;;;;;5114586;28;20675;-81
2023/06/20 13:37:59;;;;;;;3.13;2.92;;;;;;;;;;5113265;28;20209;-81
2023/06/20 13:40:30;;;;;;;3.42;3.22;;;;;;;;;;5112872;28;20310;-82
2023/06/20 13:42:58;;;;;;;3.00;2.80;;;;;;;;;;5105456;28;20221;-81
2023/06/20 13:45:25;;;;;;;3.30;3.10;;;;;;;;;;5113279;28;20225;-81
2023/06/20 13:47:53;;;;;;;3.55;3.35;;;;;;;;;;5114061;28;20206;-81
2023/06/20 13:50:20;;;;;;;3.55;3.35;;;;;;;;;;5118061;28;20237;-81
2023/06/20 13:52:49;;;;;;;3.25;3.05;;;;;;;;;;5118178;28;20289;-81
2023/06/20 13:55:17;;;;;;;4.40;4.10;;;;;;;;;;5117544;28;20209;-82
2023/06/20 13:57:44;;;;;;;3.60;3.40;;;;;;;;;;5118763;28;20226;-80
2023/06/20 14:00:14;;;;;;;4.05;3.75;;;;;;;;;;5108708;28;20234;-81
2023/06/20 14:02:42;;;;;;;4.10;3.70;;;;;;;;;;5116617;28;20735;-80
2023/06/20 14:05:13;;;;;;;4.55;4.30;;;;;;;;;;5116875;28;20290;-80
2023/06/20 14:07:40;;;;;;;3.90;3.67;;;;;;;;;;5117207;28;20207;-81
2023/06/20 14:10:10;;;;;;;4.70;4.28;;;;;;;;;;5116465;28;20765;-80
2023/06/20 14:12:38;;;;;;;3.38;3.17;;;;;;;;;;5116777;28;20737;-81
2023/06/20 14:15:07;;;;;;;3.30;3.10;;;;;;;;;;5117194;28;20210;-80
2023/06/20 14:17:35;;;;;;;3.97;3.70;;;;;;;;;;5117649;28;20203;-81
2023/06/20 14:20:04;;;;;;;4.05;3.75;;;;;;;;;;5116857;28;20218;-80
2023/06/20 14:22:32;;;;;;;2.95;2.78;;;;;;;;;;5117648;28;20261;-80
2023/06/20 14:24:59;;;;;;;3.80;3.58;;;;;;;;;;5117508;28;20200;-81
2023/06/20 14:27:28;;;;;;;3.42;3.22;;;;;;;;;;5117675;28;20683;-80
2023/06/20 14:29:57;;;;;;;3.42;3.22;;;;;;;;;;5117492;28;20234;-80
2023/06/20 14:32:24;;;;;;;3.75;3.45;;;;;;;;;;5117767;28;20210;-80
2023/06/20 14:34:51;;;;;;;3.85;3.63;;;;;;;;;;5116614;28;20207;-81
2023/06/20 14:37:19;;;;;;;3.42;3.22;;;;;;;;;;5117270;28;20575;-81
2023/06/20 14:39:47;;;;;;;2.65;2.55;;;;;;;;;;5115621;28;20226;-81
2023/06/20 14:42:15;;;;;;;3.33;3.13;;;;;;;;;;5117691;28;20758;-81
2023/06/20 14:44:44;;;;;;;4.07;3.88;;;;;;;;;;5116061;28;20204;-81
2023/06/20 14:47:11;;;;;;;4.20;3.90;;;;;;;;;;5116258;28;20208;-81
2023/06/20 14:49:39;;;;;;;4.30;4.00;;;;;;;;;;5115340;28;20249;-80
2023/06/20 14:52:06;;;;;;;4.28;3.97;;;;;;;;;;5116392;28;20695;-81
2023/06/20 14:54:34;;;;;;;4.20;3.90;;;;;;;;;;5117214;28;20291;-81
2023/06/20 14:57:01;;;;;;;4.43;4.03;;;;;;;;;;5116855;28;20713;-80